Time;durP1;ratioP1;P1;durP2;ratioP2;P2;SDS_P1;SDS_P2;PMS_P1;PMS_P2;Temp;Humidity;BMP_temperature;BMP_pressure;BME280_temperature;BME280_humidity;BME280_pressure;Samples;Min_cycle;Max_cycle;Signal;HPM_P1;HPM_P2
2023/12/12 00:02:08;;;;;;;8.27;3.83;;;;;;;;;;2613427;54;20538;-77
2023/12/12 00:04:34;;;;;;;13.53;4.00;;;;;;;;;;2612948;54;20819;-76
2023/12/12 00:07:00;;;;;;;7.03;4.07;;;;;;;;;;2612607;54;20425;-77
2023/12/12 00:09:26;;;;;;;10.40;3.63;;;;;;;;;;2613003;47;21009;-77
2023/12/12 00:11:54;;;;;;;6.10;4.10;;;;;;;;;;2613990;54;20490;-77
2023/12/12 00:14:20;;;;;;;8.50;3.60;;;;;;;;;;2613144;54;20421;-77
2023/12/12 00:16:46;;;;;;;7.90;3.77;;;;;;;;;;2612453;54;20437;-77
2023/12/12 00:19:12;;;;;;;5.93;3.00;;;;;;;;;;2613388;54;20994;-77
2023/12/12 00:21:38;;;;;;;12.53;4.07;;;;;;;;;;2614339;54;20395;-77
2023/12/12 00:24:04;;;;;;;5.80;3.70;;;;;;;;;;2614134;54;20387;-77
2023/12/12 00:26:30;;;;;;;13.13;5.03;;;;;;;;;;2614417;54;20399;-76
2023/12/12 00:28:56;;;;;;;8.47;4.40;;;;;;;;;;2613878;54;20391;-78
2023/12/12 00:31:22;;;;;;;5.63;3.57;;;;;;;;;;2613912;54;20422;-77
2023/12/12 00:33:48;;;;;;;10.50;4.60;;;;;;;;;;2613900;54;20442;-77
2023/12/12 00:36:14;;;;;;;10.67;3.77;;;;;;;;;;2614274;54;20451;-73
2023/12/12 00:38:40;;;;;;;6.77;3.50;;;;;;;;;;2613005;54;20414;-72
2023/12/12 00:41:07;;;;;;;12.63;4.53;;;;;;;;;;2613175;54;20450;-72
2023/12/12 00:43:33;;;;;;;11.73;3.47;;;;;;;;;;2613998;39;20911;-74
2023/12/12 00:45:59;;;;;;;6.80;2.60;;;;;;;;;;2613602;54;20457;-73
2023/12/12 00:48:25;;;;;;;7.70;3.67;;;;;;;;;;2612333;54;20414;-72
2023/12/12 00:50:51;;;;;;;7.60;3.47;;;;;;;;;;2613639;54;20427;-74
2023/12/12 00:53:17;;;;;;;6.40;3.10;;;;;;;;;;2612009;51;20429;-73
2023/12/12 00:55:43;;;;;;;11.43;4.30;;;;;;;;;;2613530;54;20417;-73
2023/12/12 00:58:09;;;;;;;9.63;3.27;;;;;;;;;;2612969;54;20442;-73
2023/12/12 01:00:35;;;;;;;7.63;3.20;;;;;;;;;;2613324;54;20412;-73
2023/12/12 01:03:01;;;;;;;4.63;2.50;;;;;;;;;;2613816;54;20384;-71
2023/12/12 01:05:27;;;;;;;11.40;4.43;;;;;;;;;;2613004;54;20405;-73
2023/12/12 01:07:53;;;;;;;7.30;3.33;;;;;;;;;;2613352;47;20534;-74
2023/12/12 01:10:19;;;;;;;8.53;4.43;;;;;;;;;;2613472;47;20408;-75
2023/12/12 01:12:45;;;;;;;11.63;3.70;;;;;;;;;;2611322;54;20993;-76
2023/12/12 01:15:11;;;;;;;13.03;4.10;;;;;;;;;;2613444;50;20433;-75
2023/12/12 01:17:37;;;;;;;11.87;3.67;;;;;;;;;;2613128;54;20470;-75
2023/12/12 01:20:03;;;;;;;20.37;4.17;;;;;;;;;;2613450;39;20752;-75
2023/12/12 01:22:30;;;;;;;4.80;2.77;;;;;;;;;;2613668;54;20600;-75
2023/12/12 01:24:56;;;;;;;8.33;3.67;;;;;;;;;;2614014;39;20824;-74
2023/12/12 01:27:22;;;;;;;9.20;4.43;;;;;;;;;;2613554;54;20421;-74
2023/12/12 01:29:48;;;;;;;19.67;6.43;;;;;;;;;;2611856;54;20431;-75
2023/12/12 01:32:14;;;;;;;8.97;3.80;;;;;;;;;;2613334;31;20914;-76
2023/12/12 01:34:40;;;;;;;9.00;3.60;;;;;;;;;;2613110;54;20437;-74
2023/12/12 01:37:06;;;;;;;7.03;3.20;;;;;;;;;;2613036;47;20450;-75
2023/12/12 01:39:32;;;;;;;6.77;3.40;;;;;;;;;;2612883;54;20533;-74
2023/12/12 01:41:58;;;;;;;6.07;2.60;;;;;;;;;;2613399;46;20411;-74
2023/12/12 01:44:24;;;;;;;6.40;4.40;;;;;;;;;;2613514;54;20433;-74
2023/12/12 01:46:51;;;;;;;8.83;4.10;;;;;;;;;;2612019;54;20436;-78
2023/12/12 01:49:18;;;;;;;6.20;3.70;;;;;;;;;;2613917;54;20410;-79
2023/12/12 01:51:46;;;;;;;10.17;3.63;;;;;;;;;;2613584;54;21005;-77
2023/12/12 01:54:13;;;;;;;7.43;4.93;;;;;;;;;;2613476;54;21068;-77
2023/12/12 01:56:39;;;;;;;9.37;4.60;;;;;;;;;;2613622;54;20426;-76
2023/12/12 01:59:05;;;;;;;10.80;4.30;;;;;;;;;;2614081;54;20469;-80
2023/12/12 02:01:31;;;;;;;11.80;3.53;;;;;;;;;;2613938;54;20445;-77
2023/12/12 02:03:58;;;;;;;13.10;4.60;;;;;;;;;;2614033;54;20533;-77
2023/12/12 02:06:24;;;;;;;11.50;3.90;;;;;;;;;;2613571;54;20538;-78
2023/12/12 02:08:51;;;;;;;19.50;7.30;;;;;;;;;;2613850;54;21322;-77
2023/12/12 02:11:17;;;;;;;9.93;4.80;;;;;;;;;;2613283;54;20462;-76
2023/12/12 02:13:43;;;;;;;9.33;4.07;;;;;;;;;;2613589;47;20438;-78
2023/12/12 02:16:09;;;;;;;9.60;4.13;;;;;;;;;;2613953;47;20431;-80
2023/12/12 02:18:36;;;;;;;11.43;4.00;;;;;;;;;;2614317;39;20796;-80
2023/12/12 02:21:02;;;;;;;19.03;5.03;;;;;;;;;;2614768;54;20427;-78
2023/12/12 02:23:29;;;;;;;15.47;4.90;;;;;;;;;;2615165;31;21004;-79
2023/12/12 02:25:55;;;;;;;10.03;3.60;;;;;;;;;;2614835;39;20884;-78
2023/12/12 02:28:22;;;;;;;11.53;4.03;;;;;;;;;;2615113;54;20431;-78
2023/12/12 02:30:48;;;;;;;8.73;4.30;;;;;;;;;;2614168;54;20439;-79
2023/12/12 02:33:14;;;;;;;8.63;4.23;;;;;;;;;;2613952;54;20419;-78
2023/12/12 02:35:40;;;;;;;11.00;5.23;;;;;;;;;;2614028;54;20384;-79
2023/12/12 02:38:07;;;;;;;12.90;6.10;;;;;;;;;;2613992;54;21038;-78
2023/12/12 02:40:33;;;;;;;18.60;5.70;;;;;;;;;;2613882;54;20415;-79
2023/12/12 02:42:59;;;;;;;8.07;4.27;;;;;;;;;;2613794;54;20438;-79
2023/12/12 02:45:25;;;;;;;10.13;4.23;;;;;;;;;;2614411;54;20434;-79
2023/12/12 02:47:51;;;;;;;10.80;3.90;;;;;;;;;;2613229;54;20625;-79
2023/12/12 02:50:19;;;;;;;9.73;5.03;;;;;;;;;;2614484;54;20990;-79
2023/12/12 02:52:45;;;;;;;13.80;4.70;;;;;;;;;;2613914;39;21121;-79
2023/12/12 02:55:11;;;;;;;13.80;4.87;;;;;;;;;;2613251;47;20452;-79
2023/12/12 02:57:37;;;;;;;14.70;4.43;;;;;;;;;;2613898;54;20519;-80
2023/12/12 03:00:05;;;;;;;25.03;5.60;;;;;;;;;;2612795;54;20481;-79
2023/12/12 03:02:32;;;;;;;16.60;4.80;;;;;;;;;;2613382;54;20529;-78
2023/12/12 03:04:58;;;;;;;18.00;4.47;;;;;;;;;;2613668;54;20433;-79
2023/12/12 03:07:24;;;;;;;11.57;4.20;;;;;;;;;;2612444;47;20441;-79
2023/12/12 03:09:50;;;;;;;7.90;4.43;;;;;;;;;;2613559;39;20805;-79
2023/12/12 03:12:16;;;;;;;9.63;3.90;;;;;;;;;;2614097;39;20450;-79
2023/12/12 03:14:43;;;;;;;14.30;3.80;;;;;;;;;;2612997;54;20439;-80
2023/12/12 03:17:09;;;;;;;8.53;3.60;;;;;;;;;;2612062;54;20459;-80
2023/12/12 03:19:35;;;;;;;17.93;5.23;;;;;;;;;;2613169;54;20413;-78
2023/12/12 03:22:01;;;;;;;9.90;4.10;;;;;;;;;;2613626;54;20432;-78
2023/12/12 03:24:27;;;;;;;16.33;4.37;;;;;;;;;;2613542;54;20406;-79
2023/12/12 03:26:53;;;;;;;12.13;4.03;;;;;;;;;;2613372;54;20414;-73
2023/12/12 03:29:19;;;;;;;14.03;4.53;;;;;;;;;;2612837;47;21017;-72
2023/12/12 03:31:45;;;;;;;15.80;5.40;;;;;;;;;;2612357;54;20979;-73
2023/12/12 03:34:11;;;;;;;12.97;4.67;;;;;;;;;;2611648;47;20422;-71
2023/12/12 03:36:41;;;;;;;16.40;4.30;;;;;;;;;;2613546;54;20538;-75
2023/12/12 03:39:07;;;;;;;11.90;3.73;;;;;;;;;;2613857;39;20759;-74
2023/12/12 03:41:35;;;;;;;23.83;4.80;;;;;;;;;;2612712;54;20424;-74
2023/12/12 03:44:01;;;;;;;15.40;4.50;;;;;;;;;;2613735;54;20529;-75
2023/12/12 03:46:27;;;;;;;12.93;4.40;;;;;;;;;;2612647;54;20888;-75
2023/12/12 03:48:53;;;;;;;24.23;6.90;;;;;;;;;;2612355;54;20422;-74
2023/12/12 03:51:19;;;;;;;13.00;6.20;;;;;;;;;;2614182;39;20533;-75
2023/12/12 03:53:45;;;;;;;16.77;5.20;;;;;;;;;;2613819;54;20440;-74
2023/12/12 03:56:11;;;;;;;12.03;4.20;;;;;;;;;;2613918;54;20522;-74
2023/12/12 03:58:37;;;;;;;11.80;4.67;;;;;;;;;;2613739;39;20829;-74
2023/12/12 04:01:03;;;;;;;19.80;5.70;;;;;;;;;;2614381;54;20517;-74
2023/12/12 04:03:31;;;;;;;16.63;4.60;;;;;;;;;;2615270;31;20933;-74
2023/12/12 04:05:57;;;;;;;14.60;6.13;;;;;;;;;;2614910;54;20475;-86
2023/12/12 04:08:23;;;;;;;17.03;5.50;;;;;;;;;;2619013;54;20429;-86
2023/12/12 04:10:49;;;;;;;18.73;5.00;;;;;;;;;;2618580;54;20476;-87
2023/12/12 04:13:15;;;;;;;18.57;5.20;;;;;;;;;;2616014;47;20538;-86
2023/12/12 04:15:41;;;;;;;17.60;5.60;;;;;;;;;;2617245;54;20409;-86
2023/12/12 04:18:07;;;;;;;29.90;6.27;;;;;;;;;;2615366;54;20459;-85
2023/12/12 04:20:33;;;;;;;16.13;4.73;;;;;;;;;;2616862;47;20445;-85
2023/12/12 04:22:59;;;;;;;22.77;5.13;;;;;;;;;;2616602;54;20408;-85
2023/12/12 04:25:25;;;;;;;15.20;4.20;;;;;;;;;;2617067;47;20434;-88
2023/12/12 04:27:51;;;;;;;25.27;5.90;;;;;;;;;;2616298;54;20402;-86
2023/12/12 04:30:17;;;;;;;19.77;4.73;;;;;;;;;;2616963;46;20452;-86
2023/12/12 04:32:43;;;;;;;16.30;5.70;;;;;;;;;;2617089;54;20399;-85
2023/12/12 04:35:09;;;;;;;14.63;4.47;;;;;;;;;;2616589;54;20458;-86
2023/12/12 04:37:35;;;;;;;19.00;5.90;;;;;;;;;;2616866;54;20448;-85
2023/12/12 04:40:01;;;;;;;16.60;6.27;;;;;;;;;;2616474;54;20430;-85
2023/12/12 04:42:27;;;;;;;16.07;5.77;;;;;;;;;;2616857;54;20429;-86
2023/12/12 04:44:53;;;;;;;16.87;5.13;;;;;;;;;;2617898;39;20904;-86
2023/12/12 04:47:19;;;;;;;22.07;7.17;;;;;;;;;;2613708;54;20454;-77
2023/12/12 04:49:45;;;;;;;25.37;6.27;;;;;;;;;;2613020;47;20451;-76
2023/12/12 04:52:11;;;;;;;24.60;6.70;;;;;;;;;;2612949;39;20840;-77
2023/12/12 04:54:37;;;;;;;29.67;6.27;;;;;;;;;;2612649;47;20442;-76
2023/12/12 04:57:03;;;;;;;18.87;5.87;;;;;;;;;;2613993;54;20502;-77
2023/12/12 04:59:29;;;;;;;37.03;6.63;;;;;;;;;;2613840;54;20406;-77
2023/12/12 05:01:56;;;;;;;23.77;6.00;;;;;;;;;;2613986;54;20507;-77
2023/12/12 05:04:21;;;;;;;27.87;7.67;;;;;;;;;;2613030;54;20523;-77
2023/12/12 05:06:47;;;;;;;17.97;5.33;;;;;;;;;;2612608;54;21097;-77
2023/12/12 05:09:13;;;;;;;20.43;7.50;;;;;;;;;;2613673;54;20443;-77
2023/12/12 05:11:39;;;;;;;20.47;6.20;;;;;;;;;;2613451;54;21305;-76
2023/12/12 05:14:06;;;;;;;20.67;6.00;;;;;;;;;;2613142;54;20427;-76
2023/12/12 05:16:32;;;;;;;26.03;6.60;;;;;;;;;;2612518;54;20472;-77
2023/12/12 05:18:58;;;;;;;19.20;6.03;;;;;;;;;;2613328;54;20495;-76
2023/12/12 05:21:24;;;;;;;33.73;6.70;;;;;;;;;;2613770;39;20832;-76
2023/12/12 05:23:50;;;;;;;23.13;8.10;;;;;;;;;;2613464;54;20399;-77
2023/12/12 05:26:19;;;;;;;24.47;5.87;;;;;;;;;;2613605;54;20412;-77
2023/12/12 05:28:46;;;;;;;25.43;6.93;;;;;;;;;;2613896;54;20484;-76
2023/12/12 05:31:12;;;;;;;15.80;5.73;;;;;;;;;;2614709;54;20417;-75
2023/12/12 05:33:38;;;;;;;22.87;5.67;;;;;;;;;;2614138;54;20796;-76
2023/12/12 05:36:04;;;;;;;19.10;7.10;;;;;;;;;;2613133;54;20992;-77
2023/12/12 05:38:30;;;;;;;23.37;7.93;;;;;;;;;;2614152;54;20431;-77
2023/12/12 05:40:56;;;;;;;19.37;6.23;;;;;;;;;;2614239;54;20423;-77
2023/12/12 05:43:23;;;;;;;21.00;6.47;;;;;;;;;;2613245;47;20521;-78
2023/12/12 05:45:49;;;;;;;39.03;8.10;;;;;;;;;;2614145;39;20804;-77
2023/12/12 05:48:15;;;;;;;30.73;8.03;;;;;;;;;;2614069;54;20383;-77
2023/12/12 05:50:41;;;;;;;23.10;6.00;;;;;;;;;;2613375;54;20436;-77
2023/12/12 05:53:07;;;;;;;18.87;6.73;;;;;;;;;;2612752;54;20458;-78
2023/12/12 05:55:33;;;;;;;20.50;7.60;;;;;;;;;;2613218;54;20540;-73
2023/12/12 05:57:59;;;;;;;24.30;7.10;;;;;;;;;;2615179;54;20403;-82
2023/12/12 06:00:27;;;;;;;28.30;6.67;;;;;;;;;;2615225;54;20418;-82
2023/12/12 06:02:54;;;;;;;15.60;6.47;;;;;;;;;;2615078;54;20483;-81
2023/12/12 06:05:20;;;;;;;14.00;6.67;;;;;;;;;;2613791;54;20461;-81
2023/12/12 06:07:46;;;;;;;21.13;7.20;;;;;;;;;;2614298;54;20439;-81
2023/12/12 06:10:12;;;;;;;26.13;7.60;;;;;;;;;;2614710;54;20414;-80
2023/12/12 06:12:38;;;;;;;23.43;7.40;;;;;;;;;;2615253;54;20397;-82
2023/12/12 06:15:09;;;;;;;27.00;7.90;;;;;;;;;;2614768;54;20424;-81
2023/12/12 06:17:35;;;;;;;20.73;7.00;;;;;;;;;;2614676;54;20967;-83
2023/12/12 06:20:02;;;;;;;28.27;7.57;;;;;;;;;;2614642;54;20435;-82
2023/12/12 06:22:29;;;;;;;24.23;8.80;;;;;;;;;;2615006;54;20434;-82
2023/12/12 06:24:55;;;;;;;19.33;7.00;;;;;;;;;;2615283;47;20419;-81
2023/12/12 06:27:21;;;;;;;31.90;7.40;;;;;;;;;;2616176;54;20730;-84
2023/12/12 06:29:49;;;;;;;19.80;7.87;;;;;;;;;;2615415;39;20732;-84
2023/12/12 06:32:16;;;;;;;21.37;7.20;;;;;;;;;;2616007;54;20441;-83
2023/12/12 06:34:43;;;;;;;31.30;7.67;;;;;;;;;;2615381;54;20403;-84
2023/12/12 06:37:10;;;;;;;26.17;7.93;;;;;;;;;;2615869;47;20578;-84
2023/12/12 06:39:36;;;;;;;21.80;7.13;;;;;;;;;;2616236;54;20461;-85
2023/12/12 06:42:02;;;;;;;21.50;7.17;;;;;;;;;;2614684;54;20423;-84
2023/12/12 06:44:28;;;;;;;25.50;6.87;;;;;;;;;;2615702;54;20424;-83
2023/12/12 06:46:55;;;;;;;30.53;7.87;;;;;;;;;;2615995;54;20436;-84
2023/12/12 06:49:23;;;;;;;21.03;9.50;;;;;;;;;;2616702;46;20408;-84
2023/12/12 06:51:49;;;;;;;23.70;8.60;;;;;;;;;;2615075;54;20410;-84
2023/12/12 06:54:15;;;;;;;37.47;7.37;;;;;;;;;;2615836;39;20786;-83
2023/12/12 06:56:41;;;;;;;27.27;8.00;;;;;;;;;;2615295;46;20444;-85
2023/12/12 06:59:08;;;;;;;29.57;8.00;;;;;;;;;;2615385;54;20445;-85
2023/12/12 07:01:34;;;;;;;24.87;7.33;;;;;;;;;;2617144;54;20423;-85
2023/12/12 07:04:00;;;;;;;26.40;7.20;;;;;;;;;;2618208;47;20998;-84
2023/12/12 07:06:27;;;;;;;21.00;6.70;;;;;;;;;;2618948;47;20409;-81
2023/12/12 07:08:53;;;;;;;21.10;7.50;;;;;;;;;;2618568;54;20446;-82
2023/12/12 07:11:19;;;;;;;26.00;7.33;;;;;;;;;;2615865;54;20465;-83
2023/12/12 07:13:45;;;;;;;30.27;8.60;;;;;;;;;;2614029;54;20428;-83
2023/12/12 07:16:11;;;;;;;18.90;6.67;;;;;;;;;;2613647;54;20546;-82
2023/12/12 07:18:38;;;;;;;20.87;6.93;;;;;;;;;;2614875;39;20831;-84
2023/12/12 07:21:04;;;;;;;24.13;6.40;;;;;;;;;;2614542;47;20544;-82
2023/12/12 07:23:30;;;;;;;19.77;6.80;;;;;;;;;;2615343;39;20819;-80
2023/12/12 07:25:57;;;;;;;20.73;6.17;;;;;;;;;;2614013;39;20782;-82
2023/12/12 07:28:23;;;;;;;20.57;6.53;;;;;;;;;;2614115;54;20386;-83
2023/12/12 07:30:49;;;;;;;20.33;6.03;;;;;;;;;;2613027;54;20441;-81
2023/12/12 07:33:15;;;;;;;13.47;5.90;;;;;;;;;;2613687;54;20419;-81
2023/12/12 07:35:41;;;;;;;26.07;7.63;;;;;;;;;;2612747;54;20418;-75
2023/12/12 07:38:08;;;;;;;25.67;5.90;;;;;;;;;;2613148;39;20864;-74
2023/12/12 07:40:35;;;;;;;20.77;6.40;;;;;;;;;;2612722;54;20407;-74
2023/12/12 07:43:01;;;;;;;19.23;6.40;;;;;;;;;;2613048;47;20721;-73
2023/12/12 07:45:27;;;;;;;21.20;6.57;;;;;;;;;;2611375;39;20720;-73
2023/12/12 07:47:53;;;;;;;15.13;6.63;;;;;;;;;;2611127;54;20430;-74
2023/12/12 07:50:19;;;;;;;18.57;5.73;;;;;;;;;;2613206;39;20774;-74
2023/12/12 07:52:47;;;;;;;16.60;6.47;;;;;;;;;;2612119;54;21009;-75
2023/12/12 07:55:13;;;;;;;17.70;6.00;;;;;;;;;;2612380;54;20540;-74
2023/12/12 07:57:39;;;;;;;14.33;7.17;;;;;;;;;;2612109;54;20440;-74
2023/12/12 08:00:06;;;;;;;17.90;6.13;;;;;;;;;;2611904;46;20462;-74
2023/12/12 08:02:32;;;;;;;12.87;5.70;;;;;;;;;;2612106;47;20534;-74
2023/12/12 08:04:59;;;;;;;23.03;7.10;;;;;;;;;;2612635;47;20441;-74
2023/12/12 08:07:25;;;;;;;13.57;5.70;;;;;;;;;;2612454;46;20458;-74
2023/12/12 08:09:51;;;;;;;15.70;6.30;;;;;;;;;;2612707;54;20427;-74
2023/12/12 08:12:17;;;;;;;16.47;5.40;;;;;;;;;;2612659;54;20425;-74
2023/12/12 08:14:44;;;;;;;15.90;5.43;;;;;;;;;;2612448;54;20514;-73
2023/12/12 08:17:10;;;;;;;17.50;6.00;;;;;;;;;;2611945;54;20453;-72
2023/12/12 08:19:36;;;;;;;10.60;5.50;;;;;;;;;;2611460;54;20439;-73
2023/12/12 08:22:02;;;;;;;23.17;5.70;;;;;;;;;;2613062;54;20390;-73
2023/12/12 08:24:28;;;;;;;19.00;6.50;;;;;;;;;;2610656;54;20495;-73
2023/12/12 08:26:54;;;;;;;13.90;5.50;;;;;;;;;;2612177;54;20433;-73
2023/12/12 08:29:20;;;;;;;17.93;5.53;;;;;;;;;;2611971;54;20475;-73
2023/12/12 08:31:46;;;;;;;16.43;5.60;;;;;;;;;;2613065;39;20828;-73
2023/12/12 08:34:12;;;;;;;13.60;5.67;;;;;;;;;;2613007;54;20407;-73
2023/12/12 08:36:38;;;;;;;16.80;5.53;;;;;;;;;;2612412;54;20545;-70
2023/12/12 08:39:04;;;;;;;22.93;5.23;;;;;;;;;;2613345;54;20432;-71
2023/12/12 08:41:33;;;;;;;12.30;5.50;;;;;;;;;;2612689;39;20856;-72
2023/12/12 08:44:00;;;;;;;16.63;4.77;;;;;;;;;;2613515;54;20524;-72
2023/12/12 08:46:26;;;;;;;22.87;5.33;;;;;;;;;;2612428;47;20453;-74
2023/12/12 08:48:56;;;;;;;25.67;6.23;;;;;;;;;;2613789;54;20424;-74
2023/12/12 08:51:23;;;;;;;19.40;4.73;;;;;;;;;;2613537;54;20427;-74
2023/12/12 08:53:49;;;;;;;18.60;6.53;;;;;;;;;;2613246;47;20411;-75
2023/12/12 08:56:16;;;;;;;18.50;5.70;;;;;;;;;;2612448;47;20412;-74
2023/12/12 08:58:46;;;;;;;18.77;4.50;;;;;;;;;;2613294;31;20863;-74
2023/12/12 09:01:12;;;;;;;13.93;4.90;;;;;;;;;;2612746;54;20427;-74
2023/12/12 09:03:38;;;;;;;21.13;4.70;;;;;;;;;;2612789;54;20415;-75
2023/12/12 09:06:04;;;;;;;10.23;5.07;;;;;;;;;;2612231;54;20442;-74
2023/12/12 09:08:30;;;;;;;15.83;4.17;;;;;;;;;;2613711;54;20411;-74
2023/12/12 09:10:58;;;;;;;12.83;4.13;;;;;;;;;;2612867;51;20395;-75
2023/12/12 09:13:24;;;;;;;12.97;4.47;;;;;;;;;;2614158;54;20416;-75
2023/12/12 09:15:50;;;;;;;12.53;4.80;;;;;;;;;;2612605;54;20515;-74
2023/12/12 09:18:16;;;;;;;11.87;4.53;;;;;;;;;;2612578;54;20422;-75
2023/12/12 09:20:42;;;;;;;11.00;3.90;;;;;;;;;;2613252;54;20404;-74
2023/12/12 09:23:08;;;;;;;9.83;3.63;;;;;;;;;;2613369;54;20406;-74
2023/12/12 09:25:35;;;;;;;15.07;4.90;;;;;;;;;;2612463;54;20775;-74
2023/12/12 09:28:01;;;;;;;8.17;3.93;;;;;;;;;;2611985;54;20435;-71
2023/12/12 09:30:27;;;;;;;10.87;4.37;;;;;;;;;;2613063;54;20526;-71
2023/12/12 09:32:53;;;;;;;12.10;3.73;;;;;;;;;;2613249;47;20423;-71
2023/12/12 09:35:19;;;;;;;9.57;3.93;;;;;;;;;;2612697;54;20491;-71
2023/12/12 09:37:45;;;;;;;15.67;4.97;;;;;;;;;;2612441;54;20515;-72
2023/12/12 09:40:11;;;;;;;16.13;4.87;;;;;;;;;;2612420;54;20449;-71
2023/12/12 09:42:37;;;;;;;8.70;4.40;;;;;;;;;;2612131;46;20431;-71
2023/12/12 09:45:04;;;;;;;12.80;3.73;;;;;;;;;;2613375;54;20433;-71
2023/12/12 09:47:33;;;;;;;12.30;4.37;;;;;;;;;;2612550;54;20443;-71
2023/12/12 09:49:59;;;;;;;11.47;5.03;;;;;;;;;;2613413;47;20453;-70
2023/12/12 09:52:26;;;;;;;15.30;4.53;;;;;;;;;;2612963;54;20416;-70
2023/12/12 09:54:53;;;;;;;18.90;5.03;;;;;;;;;;2612564;54;20642;-71
2023/12/12 09:57:20;;;;;;;20.33;4.97;;;;;;;;;;2612538;54;20407;-77
2023/12/12 09:59:46;;;;;;;15.67;3.87;;;;;;;;;;2614381;54;20435;-79
2023/12/12 10:02:15;;;;;;;9.60;3.97;;;;;;;;;;2614200;54;20411;-78
2023/12/12 10:04:43;;;;;;;11.40;3.70;;;;;;;;;;2614623;39;20775;-78
2023/12/12 10:07:09;;;;;;;6.60;3.13;;;;;;;;;;2614182;54;20411;-78
2023/12/12 10:09:36;;;;;;;12.37;4.20;;;;;;;;;;2614734;54;20535;-80
2023/12/12 10:12:02;;;;;;;10.53;3.90;;;;;;;;;;2613857;47;20430;-79
2023/12/12 10:14:37;;;;;;;9.93;3.70;;;;;;;;;;2614429;54;20421;-80
2023/12/12 10:17:10;;;;;;;10.53;3.90;;;;;;;;;;2612414;47;20466;-79
2023/12/12 10:19:37;;;;;;;6.80;4.00;;;;;;;;;;2613626;46;20457;-78
2023/12/12 10:22:06;;;;;;;12.73;4.60;;;;;;;;;;2613262;54;20428;-79
2023/12/12 10:24:32;;;;;;;7.37;4.17;;;;;;;;;;2614483;54;20396;-79
2023/12/12 10:26:58;;;;;;;9.03;3.73;;;;;;;;;;2614146;54;20445;-79
2023/12/12 10:29:25;;;;;;;14.13;4.20;;;;;;;;;;2612709;46;20529;-80
2023/12/12 10:31:52;;;;;;;9.03;4.50;;;;;;;;;;2613756;54;20475;-80
2023/12/12 10:34:19;;;;;;;6.23;3.87;;;;;;;;;;2613688;54;20415;-78
2023/12/12 10:36:50;;;;;;;4.50;3.70;;;;;;;;;;2612970;54;20975;-76
2023/12/12 10:39:17;;;;;;;7.30;4.10;;;;;;;;;;2613530;54;20417;-76
2023/12/12 10:41:55;;;;;;;11.20;4.50;;;;;;;;;;2612374;54;20413;-77
2023/12/12 10:44:25;;;;;;;10.20;4.87;;;;;;;;;;2612841;47;20972;-75
2023/12/12 10:46:52;;;;;;;9.87;4.20;;;;;;;;;;2611286;54;20497;-75
2023/12/12 10:49:21;;;;;;;16.07;4.90;;;;;;;;;;2612496;54;20415;-75
2023/12/12 10:51:48;;;;;;;7.57;4.40;;;;;;;;;;2612887;54;20387;-75
2023/12/12 10:54:15;;;;;;;8.20;4.10;;;;;;;;;;2613329;54;20424;-75
2023/12/12 10:56:44;;;;;;;7.50;3.87;;;;;;;;;;2612896;54;20445;-76
2023/12/12 10:59:11;;;;;;;7.00;3.80;;;;;;;;;;2612935;54;20974;-75
2023/12/12 11:01:38;;;;;;;9.33;4.07;;;;;;;;;;2611031;54;20478;-76
2023/12/12 11:04:05;;;;;;;7.40;4.40;;;;;;;;;;2612218;47;20419;-77
2023/12/12 11:06:32;;;;;;;8.47;4.40;;;;;;;;;;2612440;54;20420;-71
2023/12/12 11:08:58;;;;;;;7.97;4.47;;;;;;;;;;2612780;54;20461;-71
2023/12/12 11:11:24;;;;;;;5.57;4.30;;;;;;;;;;2610809;54;20433;-71
2023/12/12 11:13:51;;;;;;;6.60;3.80;;;;;;;;;;2611471;54;20543;-71
2023/12/12 11:16:17;;;;;;;8.60;5.10;;;;;;;;;;2611549;39;20850;-71
2023/12/12 11:18:44;;;;;;;6.80;4.90;;;;;;;;;;2611803;39;20828;-71
2023/12/12 11:21:30;;;;;;;8.57;4.93;;;;;;;;;;2612304;54;20399;-72
2023/12/12 11:23:56;;;;;;;9.20;3.93;;;;;;;;;;2613119;54;20970;-71
2023/12/12 11:26:24;;;;;;;10.13;3.80;;;;;;;;;;2612822;54;20384;-72
2023/12/12 11:28:50;;;;;;;10.00;4.10;;;;;;;;;;2612772;54;20427;-71
2023/12/12 11:31:22;;;;;;;6.40;4.53;;;;;;;;;;2613062;54;20373;-71
2023/12/12 11:34:01;;;;;;;9.13;4.80;;;;;;;;;;2612759;54;20404;-70
2023/12/12 11:36:28;;;;;;;4.87;3.80;;;;;;;;;;2613371;39;20830;-70
2023/12/12 11:39:04;;;;;;;8.30;4.30;;;;;;;;;;2612166;54;20800;-69
2023/12/12 11:41:30;;;;;;;9.77;4.33;;;;;;;;;;2611601;54;21034;-70
2023/12/12 11:43:56;;;;;;;6.83;4.70;;;;;;;;;;2612814;47;20431;-70
2023/12/12 11:46:25;;;;;;;4.50;3.93;;;;;;;;;;2613950;54;20407;-85
2023/12/12 11:48:51;;;;;;;9.17;4.33;;;;;;;;;;2618447;31;20883;-85
2023/12/12 11:51:37;;;;;;;10.03;4.80;;;;;;;;;;2616560;54;20417;-82
2023/12/12 11:54:06;;;;;;;9.83;3.67;;;;;;;;;;2615561;54;20426;-85
2023/12/12 11:56:32;;;;;;;4.63;3.80;;;;;;;;;;2613985;54;20944;-83
2023/12/12 11:59:00;;;;;;;9.07;4.10;;;;;;;;;;2614647;54;20435;-85
2023/12/12 12:01:26;;;;;;;12.13;4.70;;;;;;;;;;2614822;54;20486;-86
2023/12/12 12:03:52;;;;;;;7.67;4.57;;;;;;;;;;2613612;54;20420;-84
2023/12/12 12:06:18;;;;;;;4.50;4.10;;;;;;;;;;2613536;54;20988;-86
2023/12/12 12:08:45;;;;;;;5.60;3.60;;;;;;;;;;2614503;54;20481;-83
2023/12/12 12:11:11;;;;;;;6.17;3.60;;;;;;;;;;2614074;54;20439;-84
2023/12/12 12:13:41;;;;;;;5.33;4.00;;;;;;;;;;2615017;54;20454;-85
2023/12/12 12:16:08;;;;;;;5.53;2.60;;;;;;;;;;2614349;54;20474;-77
2023/12/12 12:18:34;;;;;;;9.20;3.50;;;;;;;;;;2613668;54;20447;-76
2023/12/12 12:21:03;;;;;;;5.97;3.27;;;;;;;;;;2614338;54;20434;-76
2023/12/12 12:23:29;;;;;;;9.27;4.07;;;;;;;;;;2614226;54;20426;-76
2023/12/12 12:25:59;;;;;;;6.07;4.00;;;;;;;;;;2614126;54;20469;-77
2023/12/12 12:28:35;;;;;;;6.70;3.30;;;;;;;;;;2613139;54;20448;-77
2023/12/12 12:31:01;;;;;;;5.43;3.77;;;;;;;;;;2614409;39;20994;-77
2023/12/12 12:33:34;;;;;;;7.53;3.50;;;;;;;;;;2614270;54;20438;-77
2023/12/12 12:36:01;;;;;;;7.07;3.87;;;;;;;;;;2613810;54;20414;-77
2023/12/12 12:38:28;;;;;;;9.30;3.27;;;;;;;;;;2613284;54;20431;-76
2023/12/12 12:40:55;;;;;;;7.60;4.00;;;;;;;;;;2612787;54;20442;-75
2023/12/12 12:43:24;;;;;;;2.70;2.50;;;;;;;;;;2613542;54;20605;-76
2023/12/12 12:45:50;;;;;;;5.97;3.33;;;;;;;;;;2612981;54;20998;-76
2023/12/12 12:48:17;;;;;;;9.37;3.67;;;;;;;;;;2613271;54;20423;-76
2023/12/12 12:50:48;;;;;;;7.50;3.70;;;;;;;;;;2613639;47;20499;-76
2023/12/12 12:53:14;;;;;;;3.60;3.30;;;;;;;;;;2612644;54;20551;-76
2023/12/12 12:55:42;;;;;;;2.70;2.40;;;;;;;;;;2612592;54;20577;-75
2023/12/12 12:58:09;;;;;;;9.67;3.77;;;;;;;;;;2613117;54;20431;-77
2023/12/12 13:00:35;;;;;;;7.97;3.33;;;;;;;;;;2612817;54;20419;-76
2023/12/12 13:03:03;;;;;;;4.00;2.77;;;;;;;;;;2612750;54;20423;-76
2023/12/12 13:05:29;;;;;;;4.93;2.50;;;;;;;;;;2614040;39;21111;-77
2023/12/12 13:07:55;;;;;;;3.40;2.23;;;;;;;;;;2613945;54;20964;-77
2023/12/12 13:10:22;;;;;;;4.10;2.90;;;;;;;;;;2613729;54;20787;-77
2023/12/12 13:12:48;;;;;;;7.37;2.60;;;;;;;;;;2613054;54;20443;-77
2023/12/12 13:15:14;;;;;;;4.10;2.27;;;;;;;;;;2613089;54;20475;-76
2023/12/12 13:17:40;;;;;;;2.57;2.37;;;;;;;;;;2611157;47;20467;-77
2023/12/12 13:20:10;;;;;;;8.97;3.10;;;;;;;;;;2612706;54;20430;-77
2023/12/12 13:22:40;;;;;;;4.80;2.20;;;;;;;;;;2613117;54;20426;-76
2023/12/12 13:25:10;;;;;;;3.50;2.60;;;;;;;;;;2613317;39;20566;-77
2023/12/12 13:27:36;;;;;;;3.20;2.10;;;;;;;;;;2612347;47;21039;-73
2023/12/12 13:30:06;;;;;;;4.07;1.83;;;;;;;;;;2611687;54;20547;-72
2023/12/12 13:32:35;;;;;;;6.57;3.57;;;;;;;;;;2613244;54;20498;-72
2023/12/12 13:35:01;;;;;;;7.67;2.47;;;;;;;;;;2612623;47;20427;-74
2023/12/12 13:37:27;;;;;;;5.13;2.27;;;;;;;;;;2612994;54;20419;-72
2023/12/12 13:39:53;;;;;;;3.47;2.10;;;;;;;;;;2612902;54;20431;-73
2023/12/12 13:42:19;;;;;;;4.83;1.97;;;;;;;;;;2613200;54;20543;-73
2023/12/12 13:44:45;;;;;;;4.70;1.63;;;;;;;;;;2612363;54;20416;-74
2023/12/12 13:47:11;;;;;;;3.83;1.70;;;;;;;;;;2613567;39;20753;-73
2023/12/12 13:49:37;;;;;;;5.40;1.70;;;;;;;;;;2611544;54;20454;-71
2023/12/12 13:52:03;;;;;;;4.83;1.83;;;;;;;;;;2610752;54;20420;-75
2023/12/12 13:54:30;;;;;;;7.00;2.00;;;;;;;;;;2612707;54;20411;-73
2023/12/12 13:56:56;;;;;;;5.43;1.70;;;;;;;;;;2613278;54;20420;-72
2023/12/12 13:59:22;;;;;;;4.43;1.87;;;;;;;;;;2612099;54;20527;-73
2023/12/12 14:01:48;;;;;;;6.30;2.80;;;;;;;;;;2612508;54;20450;-73
2023/12/12 14:04:14;;;;;;;3.73;2.07;;;;;;;;;;2612609;54;20435;-73
2023/12/12 14:06:40;;;;;;;13.93;2.57;;;;;;;;;;2612666;54;20431;-76
2023/12/12 14:09:06;;;;;;;7.13;2.10;;;;;;;;;;2612875;54;20466;-77
2023/12/12 14:11:32;;;;;;;6.13;2.10;;;;;;;;;;2613737;54;20613;-75
2023/12/12 14:13:58;;;;;;;5.90;1.90;;;;;;;;;;2613566;54;21012;-76
2023/12/12 14:16:24;;;;;;;6.43;1.93;;;;;;;;;;2612771;54;20451;-76
2023/12/12 14:18:51;;;;;;;6.40;2.30;;;;;;;;;;2612911;39;20892;-76
2023/12/12 14:21:17;;;;;;;4.73;2.17;;;;;;;;;;2612912;54;20423;-76
2023/12/12 14:23:43;;;;;;;6.13;2.90;;;;;;;;;;2612480;54;20465;-76
2023/12/12 14:26:09;;;;;;;4.80;2.33;;;;;;;;;;2613064;46;20443;-76
2023/12/12 14:28:35;;;;;;;10.93;3.27;;;;;;;;;;2613157;54;20430;-77
2023/12/12 14:31:01;;;;;;;4.53;2.50;;;;;;;;;;2613188;54;20453;-76
2023/12/12 14:33:28;;;;;;;8.13;2.77;;;;;;;;;;2612770;54;20979;-77